Time;durP1;ratioP1;P1;durP2;ratioP2;P2;SDS_P1;SDS_P2;PMS_P1;PMS_P2;Temp;Humidity;BMP_temperature;BMP_pressure;BME280_temperature;BME280_humidity;BME280_pressure;Samples;Min_cycle;Max_cycle;Signal;HPM_P1;HPM_P2
2022/01/26 00:06:10;;;;;;;49.65;21.42;;;;;;;0.57;100.00;100950.25;5034075;28;20197;-79
2022/01/26 00:08:37;;;;;;;44.10;21.17;;;;;;;0.71;100.00;100945.88;5026343;28;20179;-79
2022/01/26 00:11:05;;;;;;;43.30;21.25;;;;;;;0.76;100.00;100943.25;5034062;28;20287;-79
2022/01/26 00:13:31;;;;;;;45.85;21.50;;;;;;;0.81;100.00;100944.13;5033738;28;20604;-79
2022/01/26 00:16:01;;;;;;;41.13;20.42;;;;;;;0.84;100.00;100941.50;5032958;28;20268;-78
2022/01/26 00:18:31;;;;;;;42.25;20.23;;;;;;;0.90;100.00;100936.22;5033927;28;20202;-78
2022/01/26 00:21:05;;;;;;;37.88;18.83;;;;;;;0.93;100.00;100938.88;5033730;28;20186;-78
2022/01/26 00:26:33;;;;;;;48.88;20.40;;;;;;;0.69;100.00;100942.34;5090016;27;20539;-78
2022/01/26 00:29:11;;;;;;;47.92;20.60;;;;;;;0.79;100.00;100940.59;5090136;28;20633;-78
2022/01/26 00:39:56;;;;;;;48.88;23.60;;;;;;;0.85;100.00;100939.75;5089647;28;20191;-78
2022/01/26 00:42:25;;;;;;;53.78;23.20;;;;;;;0.79;100.00;100929.97;5090331;28;20265;-78
2022/01/26 00:44:52;;;;;;;47.50;23.00;;;;;;;1.10;100.00;100930.06;5089696;28;20584;-78
2022/01/26 00:47:19;;;;;;;50.05;23.20;;;;;;;1.15;100.00;100934.50;5089428;28;20352;-79
2022/01/26 00:49:45;;;;;;;45.45;19.50;;;;;;;1.11;100.00;100932.75;5089470;28;20271;-78
2022/01/26 00:52:19;;;;;;;44.95;21.23;;;;;;;1.51;100.00;100938.06;5089536;28;20275;-79
2022/01/26 00:54:46;;;;;;;38.30;19.45;;;;;;;1.74;100.00;100924.81;5089649;28;20266;-79
2022/01/26 00:57:13;;;;;;;46.03;19.13;;;;;;;1.72;100.00;100917.69;5089355;28;20307;-78
2022/01/26 00:59:41;;;;;;;50.67;21.75;;;;;;;1.84;100.00;100909.75;5089528;28;20205;-78
2022/01/26 01:02:08;;;;;;;47.08;20.95;;;;;;;1.95;100.00;100912.38;5089568;28;20206;-79
2022/01/26 01:04:34;;;;;;;42.03;19.60;;;;;;;1.94;100.00;100915.91;5089198;28;20251;-78
2022/01/26 01:07:04;;;;;;;47.60;22.10;;;;;;;1.91;100.00;100907.97;5089512;28;20231;-79
2022/01/26 01:09:34;;;;;;;44.05;21.23;;;;;;;1.76;100.00;100912.38;5089491;28;20669;-78
2022/01/26 01:12:02;;;;;;;39.63;21.73;;;;;;;1.91;100.00;100921.25;5089041;28;20652;-79
2022/01/26 01:14:36;;;;;;;36.47;19.17;;;;;;;1.92;100.00;100923.00;5089419;28;20296;-78
2022/01/26 01:17:06;;;;;;;43.72;19.52;;;;;;;1.96;100.00;100924.78;5089129;28;20188;-78
2022/01/26 01:19:37;;;;;;;39.10;19.92;;;;;;;1.86;100.00;100924.78;5089208;28;20572;-79
2022/01/26 01:22:26;;;;;;;45.25;22.02;;;;;;;1.91;100.00;100926.56;5089140;28;20208;-78
2022/01/26 01:28:00;;;;;;;38.53;20.05;;;;;;;1.42;100.00;100932.75;5088090;28;20545;-77
2022/01/26 01:30:33;;;;;;;42.20;18.58;;;;;;;1.43;100.00;100934.53;5086614;28;20181;-76
2022/01/26 01:33:07;;;;;;;39.05;18.52;;;;;;;1.18;100.00;100934.50;5088747;28;20192;-77
2022/01/26 01:35:36;;;;;;;33.78;18.73;;;;;;;1.56;100.00;100946.94;5088022;28;20184;-77
2022/01/26 01:38:09;;;;;;;31.90;15.18;;;;;;;1.57;100.00;100940.72;5075011;28;20574;-77
2022/01/26 01:40:36;;;;;;;34.42;19.13;;;;;;;1.65;100.00;100938.06;5075185;28;20550;-77
2022/01/26 01:43:03;;;;;;;30.98;17.25;;;;;;;1.65;100.00;100943.38;5074870;28;20649;-77
2022/01/26 01:45:32;;;;;;;30.95;15.95;;;;;;;1.36;100.00;100946.94;5075009;28;20226;-78
2022/01/26 01:47:58;;;;;;;32.75;16.02;;;;;;;0.96;100.00;100943.31;5074986;28;20222;-79
2022/01/26 01:50:27;;;;;;;28.63;15.93;;;;;;;0.90;100.00;100946.81;5074940;28;20236;-79
2022/01/26 01:52:59;;;;;;;26.98;14.80;;;;;;;0.95;100.00;100953.03;5074951;28;20242;-78
2022/01/26 01:55:28;;;;;;;26.98;15.73;;;;;;;1.18;100.00;100939.81;5074906;28;20280;-78
2022/01/26 01:57:55;;;;;;;30.15;15.95;;;;;;;1.12;100.00;100939.81;5074522;28;20197;-79
2022/01/26 02:00:22;;;;;;;26.52;15.10;;;;;;;1.03;100.00;100939.78;5074342;28;20284;-79
2022/01/26 02:02:48;;;;;;;36.22;17.17;;;;;;;0.78;100.00;100947.66;5074742;28;20611;-78
2022/01/26 02:05:15;;;;;;;33.78;16.60;;;;;;;0.72;100.00;100942.34;5074554;28;20296;-79
2022/01/26 02:07:43;;;;;;;37.30;16.08;;;;;;;0.75;100.00;100952.09;5074567;28;20207;-79
2022/01/26 02:10:10;;;;;;;37.15;18.13;;;;;;;0.86;100.00;100946.81;5074825;28;20663;-78
2022/01/26 02:12:41;;;;;;;29.30;15.15;;;;;;;1.13;100.00;100936.28;5074691;28;20224;-78
2022/01/26 02:15:14;;;;;;;34.22;16.95;;;;;;;0.69;100.00;100937.03;5074675;28;20188;-78
2022/01/26 02:18:07;;;;;;;32.20;17.15;;;;;;;0.45;100.00;100935.16;5074094;28;20196;-79
2022/01/26 02:20:56;;;;;;;39.80;17.60;;;;;;;0.59;100.00;100932.59;5073911;28;20196;-78
2022/01/26 02:53:59;;;;;;;37.15;17.67;;;;;;;0.20;100.00;100929.75;5072554;28;20189;-78
2022/01/26 02:56:31;;;;;;;42.85;18.75;;;;;;;0.28;100.00;100937.75;5073760;28;20562;-79
2022/01/26 03:01:51;;;;;;;33.47;15.50;;;;;;;0.22;100.00;100934.16;5064025;28;20643;-77
2022/01/26 03:04:30;;;;;;;32.50;15.43;;;;;;;0.05;100.00;100934.09;5073323;28;20205;-77
2022/01/26 03:07:02;;;;;;;30.48;14.93;;;;;;;-0.10;100.00;100934.88;5067607;28;20201;-77
2022/01/26 03:09:35;;;;;;;37.72;16.27;;;;;;;-0.02;100.00;100922.56;5073066;28;20192;-77
2022/01/26 03:12:03;;;;;;;33.17;16.30;;;;;;;0.07;100.00;100932.31;5073204;28;20440;-77
2022/01/26 03:14:39;;;;;;;36.45;17.63;;;;;;;0.01;100.00;100927.88;5073332;28;20228;-77
2022/01/26 03:17:14;;;;;;;38.72;17.70;;;;;;;0.15;100.00;100928.81;5073572;28;20195;-77
2022/01/26 03:19:44;;;;;;;36.88;16.35;;;;;;;0.22;100.00;100926.22;5066231;28;20591;-76
2022/01/26 03:28:12;;;;;;;33.58;17.33;;;;;;;0.03;100.00;100936.72;5073056;28;20192;-76
2022/01/26 03:36:13;;;;;;;35.05;16.02;;;;;;;0.16;100.00;100935.91;5069814;28;20193;-76
2022/01/26 03:38:43;;;;;;;36.00;16.40;;;;;;;0.01;100.00;100938.47;5073126;28;20242;-76
2022/01/26 03:41:19;;;;;;;31.45;14.88;;;;;;;0.03;100.00;100942.00;5072979;28;20208;-78
2022/01/26 03:43:46;;;;;;;34.47;14.80;;;;;;;0.05;100.00;100942.91;5073088;28;20674;-78
2022/01/26 03:46:12;;;;;;;29.30;14.75;;;;;;;0.05;100.00;100934.97;5072495;28;20208;-78
2022/01/26 03:48:39;;;;;;;32.78;15.25;;;;;;;0.17;100.00;100950.91;5073091;28;20185;-78
2022/01/26 03:51:06;;;;;;;30.88;16.75;;;;;;;0.21;100.00;100935.94;5072531;28;20191;-78
2022/01/26 03:53:33;;;;;;;34.50;15.75;;;;;;;0.35;100.00;100949.25;5072139;28;20197;-76
2022/01/26 03:55:59;;;;;;;30.92;15.45;;;;;;;0.37;100.00;100950.16;5072223;28;20220;-75
2022/01/26 03:58:27;;;;;;;34.72;16.55;;;;;;;0.57;100.00;100943.19;5072500;28;20271;-77
2022/01/26 04:00:54;;;;;;;30.65;15.82;;;;;;;0.75;100.00;100945.03;5072693;28;20227;-78
2022/01/26 04:03:21;;;;;;;26.27;15.45;;;;;;;0.84;100.00;100941.50;5072233;28;20708;-78
2022/01/26 04:05:47;;;;;;;29.80;15.35;;;;;;;0.85;100.00;100931.78;5072583;28;20658;-78
2022/01/26 04:08:19;;;;;;;33.83;14.98;;;;;;;0.72;100.00;100933.50;5071815;28;20267;-78
2022/01/26 04:10:56;;;;;;;28.25;15.35;;;;;;;0.79;100.00;100936.19;5072795;28;20272;-78
2022/01/26 04:13:23;;;;;;;30.67;15.82;;;;;;;0.72;100.00;100930.84;5072019;28;20192;-77
2022/01/26 04:15:51;;;;;;;29.70;14.02;;;;;;;0.70;100.00;100936.16;5072290;28;20191;-78
2022/01/26 04:18:23;;;;;;;28.20;15.23;;;;;;;0.41;100.00;100928.09;5072056;28;20624;-78
2022/01/26 04:20:53;;;;;;;32.80;14.85;;;;;;;0.68;100.00;100931.72;5072451;28;20686;-78
2022/01/26 04:23:26;;;;;;;28.65;14.25;;;;;;;0.76;100.00;100924.69;5071893;28;20268;-78
2022/01/26 04:25:54;;;;;;;29.48;13.90;;;;;;;0.87;100.00;100920.28;5071636;28;20236;-77
2022/01/26 04:28:26;;;;;;;28.05;14.98;;;;;;;1.08;100.00;100932.72;5072557;28;20277;-78
2022/01/26 04:30:54;;;;;;;26.02;13.88;;;;;;;0.89;100.00;100931.81;5072168;28;20196;-78
2022/01/26 04:33:20;;;;;;;32.05;14.93;;;;;;;0.79;100.00;100936.19;5065104;28;20588;-77
2022/01/26 04:35:48;;;;;;;26.13;14.00;;;;;;;0.70;100.00;100936.16;5071982;28;20267;-77
2022/01/26 04:38:21;;;;;;;35.13;14.23;;;;;;;0.95;100.00;100938.88;5072187;28;20692;-78
2022/01/26 04:40:59;;;;;;;31.55;15.65;;;;;;;1.03;100.00;100940.66;5071934;28;20193;-78
2022/01/26 04:43:30;;;;;;;30.88;14.75;;;;;;;1.30;100.00;100948.69;5066104;28;20188;-78
2022/01/26 04:45:58;;;;;;;26.25;14.32;;;;;;;1.28;100.00;100939.84;5072166;28;20204;-77
2022/01/26 04:48:25;;;;;;;30.80;13.75;;;;;;;1.24;100.00;100941.59;5071908;28;20229;-78
2022/01/26 04:50:52;;;;;;;37.10;16.25;;;;;;;1.37;100.00;100951.34;5071618;28;20193;-78
2022/01/26 04:53:19;;;;;;;28.85;14.35;;;;;;;1.25;100.00;100948.69;5072301;28;20661;-78
2022/01/26 04:55:46;;;;;;;33.72;14.70;;;;;;;1.38;100.00;100937.19;5072087;28;20211;-77
2022/01/26 04:58:12;;;;;;;28.15;14.02;;;;;;;0.89;100.00;100936.22;5064593;28;20201;-77
2022/01/26 05:00:39;;;;;;;29.77;15.48;;;;;;;0.85;100.00;100932.66;5071571;28;20236;-78
2022/01/26 05:03:07;;;;;;;29.05;13.65;;;;;;;1.20;100.00;100927.44;5071833;28;20298;-78
2022/01/26 05:05:34;;;;;;;30.73;14.43;;;;;;;1.30;100.00;100928.34;5071945;28;20225;-78
2022/01/26 05:08:00;;;;;;;31.42;14.65;;;;;;;1.41;100.00;100937.19;5071628;28;20247;-78
2022/01/26 05:10:28;;;;;;;30.60;14.00;;;;;;;1.37;100.00;100935.41;5071694;28;20189;-77
2022/01/26 05:12:54;;;;;;;27.55;13.93;;;;;;;1.53;100.00;100948.69;5074551;28;20228;-78
2022/01/26 05:15:23;;;;;;;31.00;14.60;;;;;;;1.45;100.00;100943.41;5074759;28;20288;-81
2022/01/26 05:17:50;;;;;;;28.45;14.52;;;;;;;1.44;100.00;100939.84;5074725;28;20193;-81
2022/01/26 05:20:18;;;;;;;30.67;14.43;;;;;;;1.48;100.00;100923.94;5074626;28;20284;-81
2022/01/26 05:22:45;;;;;;;28.55;13.57;;;;;;;1.56;100.00;100920.41;5074394;28;20222;-81
2022/01/26 05:25:13;;;;;;;32.40;14.35;;;;;;;1.71;100.00;100913.28;5074084;28;20302;-80
2022/01/26 05:27:40;;;;;;;32.90;14.95;;;;;;;1.62;100.00;100915.06;5074144;28;20216;-81
2022/01/26 05:30:08;;;;;;;28.55;13.60;;;;;;;1.77;100.00;100911.50;5074557;28;20208;-81
2022/01/26 05:32:35;;;;;;;25.00;13.40;;;;;;;1.87;100.00;100897.31;5074210;28;20200;-80
2022/01/26 05:35:02;;;;;;;29.23;14.25;;;;;;;1.87;100.00;100893.78;5074484;28;20643;-81
2022/01/26 05:37:30;;;;;;;27.35;12.70;;;;;;;1.93;100.00;100904.41;5074233;28;20306;-80
2022/01/26 05:39:57;;;;;;;34.90;15.23;;;;;;;1.97;100.00;100895.56;5066564;28;20188;-80
2022/01/26 05:42:24;;;;;;;28.58;14.80;;;;;;;1.87;100.00;100902.63;5074073;28;20247;-80
2022/01/26 05:44:51;;;;;;;28.30;12.98;;;;;;;1.93;100.00;100908.84;5074723;28;20239;-81
2022/01/26 05:47:20;;;;;;;36.38;14.90;;;;;;;1.84;100.00;100915.94;5073820;28;20287;-81
2022/01/26 05:49:47;;;;;;;27.30;13.70;;;;;;;1.88;100.00;100896.44;5074079;28;20192;-81
2022/01/26 05:52:14;;;;;;;29.30;13.13;;;;;;;1.98;100.00;100896.44;5074246;28;20189;-80
2022/01/26 05:54:42;;;;;;;29.77;14.30;;;;;;;1.97;100.00;100910.63;5073811;28;20642;-81
2022/01/26 05:57:09;;;;;;;33.75;15.05;;;;;;;1.69;100.00;100910.63;5072054;28;20284;-80
2022/01/26 05:59:35;;;;;;;25.25;13.10;;;;;;;1.78;100.00;100894.69;5073660;28;20277;-80
2022/01/26 06:02:02;;;;;;;28.17;12.23;;;;;;;1.81;100.00;100889.38;5073924;28;20347;-80
2022/01/26 06:04:29;;;;;;;25.55;12.85;;;;;;;1.57;100.00;100900.03;5073520;28;20287;-80
2022/01/26 06:06:57;;;;;;;34.20;14.50;;;;;;;1.56;100.00;100907.13;5074361;28;20205;-80
2022/01/26 06:09:24;;;;;;;30.00;12.68;;;;;;;1.78;100.00;100907.09;5072629;28;20224;-80
2022/01/26 06:11:52;;;;;;;24.58;12.40;;;;;;;1.86;100.00;100892.03;5073478;28;20577;-80
2022/01/26 06:14:18;;;;;;;26.85;13.40;;;;;;;1.82;100.00;100899.09;5073048;28;20191;-81
2022/01/26 06:16:45;;;;;;;27.95;13.32;;;;;;;1.72;100.00;100893.81;5073418;28;20615;-81
2022/01/26 06:19:11;;;;;;;29.23;13.27;;;;;;;1.83;100.00;100884.03;5073153;28;20212;-81
2022/01/26 06:21:38;;;;;;;28.88;13.77;;;;;;;1.99;100.00;100892.88;5073193;28;20220;-81
2022/01/26 06:24:06;;;;;;;25.27;12.50;;;;;;;1.87;100.00;100894.66;5072491;28;20230;-80
2022/01/26 06:26:33;;;;;;;28.25;13.10;;;;;;;1.82;100.00;100899.09;5072709;28;20248;-81
2022/01/26 06:29:01;;;;;;;29.05;12.45;;;;;;;1.81;100.00;100907.06;5073263;28;20601;-81
2022/01/26 06:31:28;;;;;;;26.95;13.20;;;;;;;1.56;100.00;100909.78;5073166;28;20284;-81
2022/01/26 06:33:57;;;;;;;32.33;13.38;;;;;;;1.30;100.00;100895.59;5071848;28;21035;-79
2022/01/26 06:36:24;;;;;;;31.75;14.38;;;;;;;1.32;100.00;100907.09;5071228;28;20667;-79
2022/01/26 06:38:50;;;;;;;31.23;12.43;;;;;;;1.31;100.00;100923.91;5072306;28;20204;-79
2022/01/26 06:41:23;;;;;;;28.17;13.60;;;;;;;1.09;100.00;100928.31;5072560;28;20192;-80
2022/01/26 06:43:55;;;;;;;33.28;14.40;;;;;;;0.98;100.00;100931.81;5072133;28;20237;-81
2022/01/26 06:46:29;;;;;;;29.90;13.40;;;;;;;0.95;100.00;100926.53;5071907;28;20640;-78
2022/01/26 06:49:28;;;;;;;34.72;15.07;;;;;;;1.07;100.00;100940.69;5072655;28;20192;-81
2022/01/26 06:51:47;;;;;;;33.03;13.23;;;;;;;1.32;100.00;100936.31;5072161;28;20193;-80
2022/01/26 06:54:14;;;;;;;32.05;14.70;;;;;;;1.34;100.00;100935.41;5073271;28;20275;-80
2022/01/26 06:56:41;;;;;;;30.83;14.50;;;;;;;1.34;100.00;100923.94;5073610;28;20189;-79
2022/01/26 06:59:07;;;;;;;31.88;13.20;;;;;;;1.55;100.00;100921.25;5076093;28;20191;-80
2022/01/26 07:01:35;;;;;;;32.47;14.48;;;;;;;1.74;100.00;100931.88;5072598;28;20681;-81
2022/01/26 07:04:02;;;;;;;30.42;14.02;;;;;;;1.88;100.00;100925.66;5072174;28;20213;-80
2022/01/26 07:06:29;;;;;;;30.73;13.68;;;;;;;1.82;100.00;100941.59;5071904;28;20304;-80
2022/01/26 07:08:55;;;;;;;32.45;15.40;;;;;;;1.43;100.00;100969.06;5072074;28;21009;-80
2022/01/26 07:11:22;;;;;;;30.83;12.30;;;;;;;1.12;100.00;100960.16;5071879;28;20232;-80
2022/01/26 07:13:51;;;;;;;31.23;13.65;;;;;;;1.12;100.00;100960.16;5072253;28;20196;-80
2022/01/26 07:21:59;;;;;;;29.63;13.68;;;;;;;1.53;100.00;100975.25;5028307;28;20241;-81
2022/01/26 07:24:26;;;;;;;29.13;13.90;;;;;;;1.52;100.00;100970.84;5060052;28;20657;-80
2022/01/26 07:26:54;;;;;;;30.10;13.85;;;;;;;1.42;100.00;100970.78;5071712;28;20243;-79
2022/01/26 07:29:23;;;;;;;32.28;15.27;;;;;;;1.28;100.00;100963.72;5071573;28;20239;-80
2022/01/26 07:31:50;;;;;;;31.38;15.75;;;;;;;1.35;100.00;100969.03;5071141;28;20196;-80
2022/01/26 07:34:22;;;;;;;32.22;15.20;;;;;;;1.04;100.00;100973.38;5071368;28;20208;-80
2022/01/26 07:36:51;;;;;;;31.50;15.50;;;;;;;1.00;100.00;100988.41;5071382;28;20185;-80
2022/01/26 07:39:29;;;;;;;36.20;14.88;;;;;;;1.02;100.00;100988.44;5071801;28;20639;-80
2022/01/26 07:41:56;;;;;;;34.38;14.75;;;;;;;0.93;100.00;100985.75;5071375;28;20195;-80
2022/01/26 07:44:22;;;;;;;31.35;14.18;;;;;;;1.03;100.00;100975.16;5071529;28;20294;-80
2022/01/26 07:46:49;;;;;;;28.52;14.48;;;;;;;1.03;100.00;100963.66;5071165;28;20217;-81
2022/01/26 07:49:16;;;;;;;24.65;13.10;;;;;;;1.13;100.00;100956.59;5071338;28;20295;-82
2022/01/26 07:51:44;;;;;;;26.90;14.32;;;;;;;1.27;100.00;100965.50;5071287;28;20230;-81
2022/01/26 07:54:10;;;;;;;26.63;14.25;;;;;;;1.25;100.00;100978.75;5070863;28;20386;-81
2022/01/26 07:56:37;;;;;;;28.98;14.77;;;;;;;1.16;100.00;100975.19;5070950;28;20207;-80
2022/01/26 07:59:04;;;;;;;24.60;13.93;;;;;;;1.36;100.00;100969.94;5070962;28;20335;-81
2022/01/26 08:01:31;;;;;;;27.80;14.32;;;;;;;1.36;100.00;100969.94;5071706;28;20276;-81
2022/01/26 08:03:58;;;;;;;25.67;14.13;;;;;;;1.14;100.00;100975.19;5071285;28;20204;-80
2022/01/26 08:06:24;;;;;;;30.02;20.33;;;;;;;1.08;100.00;100980.47;5071414;28;20546;-81
2022/01/26 08:08:53;;;;;;;22.55;14.23;;;;;;;0.97;100.00;100990.16;5070739;28;20195;-81
2022/01/26 08:11:19;;;;;;;26.23;13.68;;;;;;;1.17;100.00;100971.66;5071129;28;20638;-82
2022/01/26 08:13:46;;;;;;;28.98;13.77;;;;;;;1.29;100.00;100990.25;5070472;28;20231;-81
2022/01/26 08:16:13;;;;;;;27.45;14.52;;;;;;;1.30;100.00;101023.88;5071076;28;20243;-81
2022/01/26 08:18:39;;;;;;;31.77;15.45;;;;;;;1.27;100.00;101023.88;5071471;28;20200;-81
2022/01/26 08:21:06;;;;;;;25.73;13.48;;;;;;;1.21;100.00;101021.19;5071478;28;20650;-82
2022/01/26 08:23:36;;;;;;;26.77;14.20;;;;;;;1.27;100.00;101013.25;5057229;28;20200;-81
2022/01/26 08:26:05;;;;;;;29.33;14.38;;;;;;;1.37;100.00;100999.09;5050500;28;20241;-82
2022/01/26 08:28:36;;;;;;;24.95;13.05;;;;;;;1.40;100.00;101015.06;5051100;28;20615;-82
2022/01/26 08:31:03;;;;;;;24.52;13.77;;;;;;;1.32;100.00;101003.53;5050427;28;20271;-81
2022/01/26 08:33:30;;;;;;;24.80;13.18;;;;;;;1.21;100.00;101006.16;5050364;28;20201;-82
2022/01/26 08:35:57;;;;;;;24.63;12.77;;;;;;;1.15;100.00;100987.56;5050765;28;20236;-81
2022/01/26 08:38:24;;;;;;;21.90;12.45;;;;;;;1.18;100.00;100978.75;5050607;28;20201;-81
2022/01/26 08:40:51;;;;;;;21.65;11.98;;;;;;;1.04;100.00;100981.34;5050766;28;20185;-81
2022/01/26 08:43:19;;;;;;;22.67;11.25;;;;;;;1.20;100.00;100992.91;5051016;28;20277;-83
2022/01/26 08:45:46;;;;;;;21.85;11.65;;;;;;;1.14;100.00;100984.91;5050834;28;20296;-79
2022/01/26 08:48:13;;;;;;;21.67;11.77;;;;;;;1.21;100.00;100978.75;5054845;28;20292;-80
2022/01/26 08:50:40;;;;;;;21.17;11.95;;;;;;;1.49;100.00;100970.81;5054890;28;20627;-81
2022/01/26 08:53:07;;;;;;;18.27;11.18;;;;;;;1.51;100.00;100979.66;5054862;28;20191;-81
2022/01/26 08:55:36;;;;;;;21.25;12.18;;;;;;;1.53;100.00;100984.09;5054563;28;20300;-82
2022/01/26 08:58:03;;;;;;;19.85;10.45;;;;;;;1.70;100.00;100984.13;5054058;28;20189;-82
2022/01/26 09:00:31;;;;;;;22.48;12.35;;;;;;;1.44;100.00;100981.44;5054907;28;20267;-80
2022/01/26 09:02:59;;;;;;;20.70;11.10;;;;;;;1.70;100.00;100988.50;5055102;28;20262;-84
2022/01/26 09:05:26;;;;;;;20.67;11.93;;;;;;;1.84;100.00;100974.38;5054601;28;20192;-82
2022/01/26 09:07:56;;;;;;;21.98;11.93;;;;;;;1.74;100.00;100963.72;5054633;28;20239;-82
2022/01/26 09:10:26;;;;;;;24.02;11.90;;;;;;;1.73;100.00;100957.53;5062280;28;20200;-83
2022/01/26 09:12:53;;;;;;;19.85;12.15;;;;;;;2.02;100.00;100951.34;5063802;28;20561;-81
2022/01/26 09:15:26;;;;;;;22.02;11.68;;;;;;;2.13;100.00;100954.84;5054574;28;20674;-81
2022/01/26 09:17:54;;;;;;;20.25;11.93;;;;;;;2.37;100.00;100958.34;5058521;28;20200;-81
2022/01/26 09:20:21;;;;;;;24.33;14.07;;;;;;;2.41;100.00;100954.78;5074493;28;20196;-81
2022/01/26 09:22:48;;;;;;;19.90;11.38;;;;;;;2.43;100.00;100969.84;5074511;28;20246;-82
2022/01/26 09:25:14;;;;;;;16.90;9.43;;;;;;;2.46;100.00;100980.44;5074027;28;20236;-79
2022/01/26 09:27:41;;;;;;;18.33;10.57;;;;;;;2.39;100.00;100978.69;5074030;28;20300;-80
2022/01/26 09:30:10;;;;;;;19.42;10.70;;;;;;;2.08;100.00;100978.78;5072196;28;20219;-81
2022/01/26 09:32:36;;;;;;;26.88;13.10;;;;;;;1.83;100.00;100980.56;5074031;28;20215;-81
2022/01/26 09:35:07;;;;;;;20.38;11.82;;;;;;;1.77;100.00;100967.28;5074127;28;20238;-80
2022/01/26 09:37:34;;;;;;;16.52;10.32;;;;;;;1.82;100.00;100962.84;5073642;28;20193;-80
2022/01/26 09:40:01;;;;;;;22.35;10.63;;;;;;;1.78;100.00;100961.06;5075128;28;20204;-79
2022/01/26 09:42:27;;;;;;;22.45;11.45;;;;;;;1.79;100.00;100984.13;5074110;28;20189;-81
2022/01/26 09:44:54;;;;;;;17.55;10.95;;;;;;;1.74;100.00;100980.59;5074118;28;20559;-77
2022/01/26 09:47:25;;;;;;;20.27;10.85;;;;;;;1.67;100.00;100979.69;5074259;28;20208;-82
2022/01/26 09:49:52;;;;;;;19.30;11.88;;;;;;;1.58;100.00;100981.44;5073508;28;20626;-79
2022/01/26 09:52:27;;;;;;;18.42;10.73;;;;;;;1.65;100.00;100992.09;5074247;28;20666;-79
2022/01/26 09:54:58;;;;;;;18.70;11.32;;;;;;;1.61;100.00;100989.44;5073831;28;20183;-80
2022/01/26 09:57:24;;;;;;;17.30;10.93;;;;;;;1.69;100.00;100995.59;5073556;28;20197;-81
2022/01/26 09:59:51;;;;;;;15.52;10.27;;;;;;;1.68;100.00;101007.13;5073592;28;20193;-81
2022/01/26 10:02:23;;;;;;;22.08;11.27;;;;;;;1.62;100.00;101015.06;5073905;28;20189;-80
2022/01/26 10:04:56;;;;;;;20.52;11.40;;;;;;;1.44;100.00;101011.50;5072646;28;20184;-80
2022/01/26 10:07:28;;;;;;;19.50;10.57;;;;;;;1.29;100.00;101027.41;5073103;28;20224;-81
2022/01/26 10:15:37;;;;;;;20.90;11.82;;;;;;;1.11;100.00;101019.38;5072943;28;20200;-78
2022/01/26 10:18:08;;;;;;;21.38;11.77;;;;;;;1.15;100.00;101011.44;5072408;28;20327;-81
2022/01/26 10:20:43;;;;;;;21.83;12.65;;;;;;;1.19;100.00;101015.00;5073435;28;20540;-80
2022/01/26 10:23:17;;;;;;;22.38;12.02;;;;;;;1.31;100.00;101030.06;5073113;28;20196;-79
2022/01/26 10:25:48;;;;;;;19.13;11.60;;;;;;;1.42;100.00;101009.72;5067898;28;20229;-79
2022/01/26 10:28:16;;;;;;;23.65;12.52;;;;;;;1.55;100.00;101010.66;5072635;28;20231;-80
2022/01/26 10:30:45;;;;;;;20.05;11.82;;;;;;;1.57;100.00;101014.19;5071231;28;20189;-80
2022/01/26 10:33:13;;;;;;;22.98;12.43;;;;;;;1.52;100.00;101018.63;5072974;28;20677;-80
2022/01/26 10:35:40;;;;;;;26.35;12.80;;;;;;;1.54;100.00;101038.06;5072240;28;20197;-80
2022/01/26 10:38:07;;;;;;;22.08;13.25;;;;;;;1.62;100.00;101044.28;5072549;28;20283;-79
2022/01/26 10:40:38;;;;;;;23.98;13.77;;;;;;;1.57;100.00;101043.41;5071514;28;20228;-82
2022/01/26 10:43:09;;;;;;;24.63;12.18;;;;;;;1.46;100.00;101040.72;5071361;28;20215;-81
2022/01/26 10:48:31;;;;;;;24.70;13.50;;;;;;;1.22;100.00;101041.53;5066891;28;20681;-79
2022/01/26 10:54:10;;;;;;;23.55;13.70;;;;;;;1.45;100.00;101018.59;5072819;28;20271;-79
2022/01/26 10:56:39;;;;;;;26.10;14.50;;;;;;;1.34;100.00;101007.06;5069980;28;20574;-80
2022/01/26 10:59:06;;;;;;;33.05;15.35;;;;;;;1.37;100.00;101000.88;5072026;28;20622;-81
2022/01/26 11:01:38;;;;;;;24.38;13.90;;;;;;;1.41;100.00;101000.91;5071257;28;20367;-79
2022/01/26 11:04:05;;;;;;;25.17;14.20;;;;;;;1.63;100.00;100995.63;5063652;28;20192;-82
2022/01/26 11:06:32;;;;;;;27.02;14.90;;;;;;;1.83;100.00;100974.34;5071837;28;20185;-81
2022/01/26 11:09:07;;;;;;;32.22;13.70;;;;;;;2.16;100.00;100992.03;5071378;28;20307;-83
2022/01/26 11:11:34;;;;;;;23.50;13.30;;;;;;;2.04;100.00;101011.56;5072264;28;20188;-80
2022/01/26 11:14:13;;;;;;;23.15;14.27;;;;;;;2.09;100.00;101000.91;5072209;28;20192;-79
2022/01/26 11:16:49;;;;;;;21.80;12.57;;;;;;;2.04;100.00;101002.69;5071085;28;20236;-80
2022/01/26 11:19:16;;;;;;;25.52;15.10;;;;;;;1.85;100.00;101005.38;5071550;28;20196;-79
2022/01/26 11:21:43;;;;;;;26.98;14.43;;;;;;;1.67;100.00;101014.22;5071198;28;20275;-79
2022/01/26 11:24:12;;;;;;;25.67;15.38;;;;;;;1.59;100.00;101020.41;5071211;28;20191;-79
2022/01/26 11:26:41;;;;;;;23.88;12.68;;;;;;;1.49;100.00;101026.56;5071693;28;20281;-79
2022/01/26 11:29:22;;;;;;;26.98;15.05;;;;;;;1.59;100.00;101025.72;5070723;28;20215;-82
2022/01/26 11:32:01;;;;;;;27.65;14.70;;;;;;;1.54;100.00;101027.44;5070475;28;20192;-78
2022/01/26 11:34:29;;;;;;;21.40;11.85;;;;;;;1.38;100.00;101024.78;5071057;28;20192;-82
2022/01/26 11:36:59;;;;;;;21.98;12.15;;;;;;;1.18;100.00;101021.19;5052438;28;20208;-80
2022/01/26 11:45:09;;;;;;;23.05;11.25;;;;;;;1.45;100.00;101007.09;5037871;28;20313;-81
2022/01/26 11:47:40;;;;;;;24.20;12.80;;;;;;;1.36;100.00;101009.75;5071353;28;20191;-81
2022/01/26 11:50:10;;;;;;;20.10;12.55;;;;;;;1.45;100.00;100994.72;5071464;28;20200;-81
2022/01/26 11:52:39;;;;;;;22.83;13.10;;;;;;;1.69;100.00;100995.59;5071231;28;20238;-80
2022/01/26 11:55:20;;;;;;;20.75;12.13;;;;;;;1.68;100.00;100993.84;5071601;28;20243;-82
2022/01/26 11:57:55;;;;;;;23.38;11.88;;;;;;;1.69;100.00;100989.41;5071443;28;20279;-82
2022/01/26 12:00:40;;;;;;;21.08;11.45;;;;;;;1.64;100.00;100982.31;5071833;28;20183;-83
2022/01/26 12:03:10;;;;;;;19.67;10.18;;;;;;;1.63;100.00;100974.38;5070829;28;20188;-82
2022/01/26 12:05:49;;;;;;;19.45;10.85;;;;;;;1.77;100.00;100974.38;5071242;28;20180;-82
2022/01/26 12:08:16;;;;;;;19.83;11.65;;;;;;;1.65;100.00;100976.16;5071340;28;20246;-82
2022/01/26 12:10:45;;;;;;;22.60;13.18;;;;;;;1.68;100.00;100977.91;5071730;28;20184;-83
2022/01/26 12:13:17;;;;;;;23.35;11.70;;;;;;;1.42;100.00;100968.13;5071533;28;20204;-82
2022/01/26 12:15:49;;;;;;;21.50;11.30;;;;;;;1.52;100.00;100968.19;5070737;28;20185;-81
2022/01/26 12:18:25;;;;;;;19.80;11.50;;;;;;;1.56;100.00;100975.25;5071217;28;20275;-81
2022/01/26 12:33:06;;;;;;;22.70;12.85;;;;;;;1.45;100.00;100986.75;5070070;28;20223;-82
2022/01/26 12:35:44;;;;;;;24.23;12.98;;;;;;;1.48;100.00;100979.66;5069015;28;20201;-81
2022/01/26 12:38:20;;;;;;;24.77;13.25;;;;;;;1.53;100.00;100977.91;5070053;28;20698;-82
2022/01/26 12:43:35;;;;;;;22.52;14.23;;;;;;;1.52;100.00;100969.06;5070335;28;20219;-83
2022/01/26 12:46:04;;;;;;;23.05;13.32;;;;;;;1.59;100.00;100964.63;5069307;28;20212;-82
2022/01/26 12:48:34;;;;;;;23.95;12.75;;;;;;;1.73;100.00;100976.13;5069019;28;20221;-80
2022/01/26 12:51:02;;;;;;;25.88;13.18;;;;;;;1.68;100.00;100975.25;5068369;28;20573;-82
2022/01/26 12:53:32;;;;;;;26.45;14.10;;;;;;;1.73;100.00;100981.44;5069824;28;20208;-82
2022/01/26 12:56:01;;;;;;;22.70;13.20;;;;;;;1.64;100.00;100978.78;5069837;28;20265;-80
2022/01/26 12:58:30;;;;;;;24.33;14.45;;;;;;;1.49;100.00;100976.13;5070488;28;20200;-83
2022/01/26 13:01:02;;;;;;;26.00;14.43;;;;;;;1.51;100.00;100963.72;5069698;28;20290;-81